Saffet Bey — TCUZ — position and weather

sailwx.info

Track history (hours):
 
Tides and Currents Weather Stations Pressure Air Temp Water Temp Dewpoint Dewpoint Depression Visibility Wind Speed Wind Dir Waves Ship Positions

Saffet Bey

Last reported at 2017-Mar-27 05:33 UTC. Time now 2017-Mar-27 10:33 UTC.
Position N 37°15' E 024°48'.

Length 164 m; draft 6.7 m.

Type: Cargo ship. MMSI: 271000419.

Date/timePositionNaut miles runAvg speedWind from/ knotsBaromVisibWave heightAir tempDewpointWater temp
2017-Mar-27 05:33N 37°15' E 024°48'1715.9
2017-Mar-27 04:31N 37°25' E 025°04'1815.7
2017-Mar-27 03:22N 37°36' E 025°22'6 0.3
2017-Mar-26 07:05N 37°40' E 025°27'915.7
2017-Mar-26 06:30N 37°34' E 025°19'1515.6
2017-Mar-26 05:33N 37°24' E 025°04'1615.6
2017-Mar-26 04:33N 37°15' E 024°49'34212.6
2017-Mar-25 01:23N 40°16' E 018°37'1716.3
2017-Mar-25 00:22N 40°29' E 018°24'1316.3
2017-Mar-24 23:33N 40°39' E 018°13'26815.7
2017-Mar-24 06:32N 43°59' E 014°12'2015.4
2017-Mar-24 05:15N 44°15' E 013°55'1115.2
2017-Mar-24 04:32N 44°24' E 013°47'1515.4
2017-Mar-24 03:33N 44°37' E 013°35'1515.4
2017-Mar-24 02:34N 44°49' E 013°24'1615.7
2017-Mar-24 01:33N 45°03' E 013°12'1615.6
2017-Mar-24 00:33N 45°17' E 013°04'1414.1
2017-Mar-23 23:33N 45°30' E 013°14'1515.1
2017-Mar-23 22:33N 45°37' E 013°33'9 8.7
2017-Mar-23 21:31N 45°38' E 013°46'0 0.0
2017-Mar-23 20:34N 45°38' E 013°46'0 0.0
2017-Mar-23 19:30N 45°38' E 013°46'0 0.0
2017-Mar-23 18:30N 45°38' E 013°46'0 0.0
2017-Mar-23 17:27N 45°38' E 013°46'0 0.0
2017-Mar-23 16:33N 45°38' E 013°46'0 0.0
2017-Mar-23 15:33N 45°38' E 013°46'0 0.0
2017-Mar-23 14:24N 45°38' E 013°46'0 0.0
2017-Mar-23 13:09N 45°38' E 013°46'0 0.0
2017-Mar-23 12:24N 45°38' E 013°46'0 0.0
2017-Mar-23 11:33N 45°38' E 013°46'0 0.0
2017-Mar-23 10:33N 45°38' E 013°46'0 0.0
2017-Mar-23 09:33N 45°38' E 013°46'0 0.0
2017-Mar-23 08:09N 45°38' E 013°46'0 0.0
2017-Mar-23 07:24N 45°38' E 013°46'0 0.0
2017-Mar-23 06:30N 45°38' E 013°46'0 0.0
2017-Mar-23 05:33N 45°38' E 013°46'0 0.0
2017-Mar-23 04:27N 45°38' E 013°46'0 0.0
2017-Mar-23 03:24N 45°38' E 013°46'0 0.0
2017-Mar-23 02:33N 45°38' E 013°46'0 0.0
2017-Mar-23 01:33N 45°38' E 013°46'0 0.0
2017-Mar-23 00:33N 45°38' E 013°46'0 0.0
2017-Mar-22 23:33N 45°38' E 013°46'0 0.0
2017-Mar-22 22:33N 45°38' E 013°46'0 0.0
2017-Mar-22 21:30N 45°38' E 013°46'0 0.0
2017-Mar-22 20:27N 45°38' E 013°46'0 0.0
2017-Mar-22 19:33N 45°38' E 013°46'0 0.0
2017-Mar-22 18:33N 45°38' E 013°46'0 0.0
2017-Mar-22 17:33N 45°38' E 013°46'0 0.0
2017-Mar-22 16:33N 45°38' E 013°46'0 0.0
2017-Mar-22 15:33N 45°38' E 013°46'0 0.0
2017-Mar-22 14:33N 45°38' E 013°46'0 0.0
2017-Mar-22 13:33N 45°38' E 013°46'2 2.0
2017-Mar-22 12:33N 45°39' E 013°43'1313.3
2017-Mar-22 11:33N 45°32' E 013°26'1515.2
2017-Mar-22 10:33N 45°20' E 013°14'1615.8
2017-Mar-22 09:33N 45°05' E 013°20'1515.5
2017-Mar-22 08:33N 44°51' E 013°30'1615.6
2017-Mar-22 07:33N 44°38' E 013°42'1615.8
2017-Mar-22 06:33N 44°24' E 013°54'65613.1
2017-Mar-20 04:33N 37°19' E 024°54'1515.3
2017-Mar-20 03:33N 37°28' E 025°10'1615.2
2017-Mar-20 02:30N 37°39' E 025°25'7 0.4
2017-Mar-19 09:23N 37°34' E 025°18'1315.3
2017-Mar-19 08:33N 37°26' E 025°06'1515.5
2017-Mar-19 07:33N 37°16' E 024°51'62312.6
2017-Mar-17 06:13N 43°53' E 014°19'  
Track history (hours):
 
Tides and Currents Weather Stations Pressure Air Temp Water Temp Dewpoint Dewpoint Depression Visibility Wind Speed Wind Dir Waves Ship Positions

Saffet Bey

Last reported at 2017-Mar-27 05:33 UTC. Time now 2017-Mar-27 10:33 UTC.
Position N 37°15' E 024°48'.

Length 164 m; draft 6.7 m.

Type: Cargo ship. MMSI: 271000419.

Date/timePositionNaut miles runAvg speedWind from/ knotsBaromVisibWave heightAir tempDewpointWater temp
2017-Mar-27 05:33N 37°15' E 024°48'1715.9
2017-Mar-27 04:31N 37°25' E 025°04'1815.7
2017-Mar-27 03:22N 37°36' E 025°22'6 0.3
2017-Mar-26 07:05N 37°40' E 025°27'915.7
2017-Mar-26 06:30N 37°34' E 025°19'1515.6
2017-Mar-26 05:33N 37°24' E 025°04'1615.6
2017-Mar-26 04:33N 37°15' E 024°49'34212.6
2017-Mar-25 01:23N 40°16' E 018°37'1716.3
2017-Mar-25 00:22N 40°29' E 018°24'1316.3
2017-Mar-24 23:33N 40°39' E 018°13'26815.7
2017-Mar-24 06:32N 43°59' E 014°12'2015.4
2017-Mar-24 05:15N 44°15' E 013°55'1115.2
2017-Mar-24 04:32N 44°24' E 013°47'1515.4
2017-Mar-24 03:33N 44°37' E 013°35'1515.4
2017-Mar-24 02:34N 44°49' E 013°24'1615.7
2017-Mar-24 01:33N 45°03' E 013°12'1615.6
2017-Mar-24 00:33N 45°17' E 013°04'1414.1
2017-Mar-23 23:33N 45°30' E 013°14'1515.1
2017-Mar-23 22:33N 45°37' E 013°33'9 8.7
2017-Mar-23 21:31N 45°38' E 013°46'0 0.0
2017-Mar-23 20:34N 45°38' E 013°46'0 0.0
2017-Mar-23 19:30N 45°38' E 013°46'0 0.0
2017-Mar-23 18:30N 45°38' E 013°46'0 0.0
2017-Mar-23 17:27N 45°38' E 013°46'0 0.0
2017-Mar-23 16:33N 45°38' E 013°46'0 0.0
2017-Mar-23 15:33N 45°38' E 013°46'0 0.0
2017-Mar-23 14:24N 45°38' E 013°46'0 0.0
2017-Mar-23 13:09N 45°38' E 013°46'0 0.0
2017-Mar-23 12:24N 45°38' E 013°46'0 0.0
2017-Mar-23 11:33N 45°38' E 013°46'0 0.0
2017-Mar-23 10:33N 45°38' E 013°46'0 0.0
2017-Mar-23 09:33N 45°38' E 013°46'0 0.0
2017-Mar-23 08:09N 45°38' E 013°46'0 0.0
2017-Mar-23 07:24N 45°38' E 013°46'0 0.0
2017-Mar-23 06:30N 45°38' E 013°46'0 0.0
2017-Mar-23 05:33N 45°38' E 013°46'0 0.0
2017-Mar-23 04:27N 45°38' E 013°46'0 0.0
2017-Mar-23 03:24N 45°38' E 013°46'0 0.0
2017-Mar-23 02:33N 45°38' E 013°46'0 0.0
2017-Mar-23 01:33N 45°38' E 013°46'0 0.0
2017-Mar-23 00:33N 45°38' E 013°46'0 0.0
2017-Mar-22 23:33N 45°38' E 013°46'0 0.0
2017-Mar-22 22:33N 45°38' E 013°46'0 0.0
2017-Mar-22 21:30N 45°38' E 013°46'0 0.0
2017-Mar-22 20:27N 45°38' E 013°46'0 0.0
2017-Mar-22 19:33N 45°38' E 013°46'0 0.0
2017-Mar-22 18:33N 45°38' E 013°46'0 0.0
2017-Mar-22 17:33N 45°38' E 013°46'0 0.0
2017-Mar-22 16:33N 45°38' E 013°46'0 0.0
2017-Mar-22 15:33N 45°38' E 013°46'0 0.0
2017-Mar-22 14:33N 45°38' E 013°46'0 0.0
2017-Mar-22 13:33N 45°38' E 013°46'2 2.0
2017-Mar-22 12:33N 45°39' E 013°43'1313.3
2017-Mar-22 11:33N 45°32' E 013°26'1515.2
2017-Mar-22 10:33N 45°20' E 013°14'1615.8
2017-Mar-22 09:33N 45°05' E 013°20'1515.5
2017-Mar-22 08:33N 44°51' E 013°30'1615.6
2017-Mar-22 07:33N 44°38' E 013°42'1615.8
2017-Mar-22 06:33N 44°24' E 013°54'65613.1
2017-Mar-20 04:33N 37°19' E 024°54'1515.3
2017-Mar-20 03:33N 37°28' E 025°10'1615.2
2017-Mar-20 02:30N 37°39' E 025°25'7 0.4
2017-Mar-19 09:23N 37°34' E 025°18'1315.3
2017-Mar-19 08:33N 37°26' E 025°06'1515.5
2017-Mar-19 07:33N 37°16' E 024°51'62312.6
2017-Mar-17 06:13N 43°53' E 014°19'  

Dump ship's entire track history